createdAt,value
2023-05-08T00:02:42.667Z,5.23
2023-05-08T00:07:46.384Z,5.08
2023-05-08T00:12:49.537Z,4.97
2023-05-08T00:17:52.729Z,4.90
2023-05-08T00:22:57.028Z,4.83
2023-05-08T00:28:01.175Z,4.74
2023-05-08T00:33:04.839Z,4.65
2023-05-08T00:38:07.986Z,4.61
2023-05-08T00:43:11.206Z,4.49
2023-05-08T00:48:14.411Z,4.34
2023-05-08T00:53:19.418Z,4.13
2023-05-08T00:58:27.386Z,4.00
2023-05-08T01:03:36.285Z,3.90
2023-05-08T01:08:39.937Z,3.86
2023-05-08T01:14:04.858Z,3.81
2023-05-08T01:19:53.224Z,4.77
2023-05-08T01:25:58.307Z,7.77
2023-05-08T01:31:22.618Z,9.45
2023-05-08T01:36:39.931Z,9.28
2023-05-08T01:41:54.102Z,7.39
2023-05-08T01:46:59.645Z,6.32
2023-05-08T01:52:14.233Z,5.59
2023-05-08T01:57:20.993Z,5.00
2023-05-08T02:02:26.350Z,4.47
2023-05-08T02:07:29.600Z,4.00
2023-05-08T02:12:34.421Z,3.70
2023-05-08T02:17:41.130Z,3.40
2023-05-08T02:22:49.300Z,3.21
2023-05-08T02:27:55.504Z,3.05
2023-05-08T02:33:01.402Z,2.92
2023-05-08T02:38:11.061Z,2.85
2023-05-08T02:43:14.587Z,2.80
2023-05-08T02:48:33.564Z,3.54
2023-05-08T02:53:48.088Z,6.29
2023-05-08T02:59:02.707Z,8.01
2023-05-08T03:04:11.077Z,8.04
2023-05-08T03:09:21.678Z,6.21
2023-05-08T03:14:29.434Z,5.15
2023-05-08T03:19:39.509Z,4.52
2023-05-08T03:24:46.171Z,4.04
2023-05-08T03:29:52.480Z,3.65
2023-05-08T03:34:59.873Z,3.23
2023-05-08T03:40:04.039Z,2.90
2023-05-08T03:45:11.049Z,2.69
2023-05-08T03:50:15.405Z,2.61
2023-05-08T03:55:18.551Z,2.63
2023-05-08T04:00:43.680Z,3.45
2023-05-08T04:06:16.140Z,6.36
2023-05-08T04:11:32.152Z,8.24
2023-05-08T04:16:46.054Z,9.51
2023-05-08T04:21:51.789Z,9.48
2023-05-08T04:26:55.563Z,7.80
2023-05-08T04:32:01.893Z,6.84
2023-05-08T04:37:08.183Z,6.29
2023-05-08T04:42:11.203Z,5.97
2023-05-08T04:47:14.956Z,5.86
2023-05-08T04:52:18.147Z,5.88
2023-05-08T04:57:21.248Z,5.97
2023-05-08T05:02:27.339Z,6.09
2023-05-08T05:07:30.539Z,6.25
2023-05-08T05:12:33.727Z,6.48
2023-05-08T05:17:36.921Z,6.75
2023-05-08T05:22:40.729Z,7.05
2023-05-08T05:27:45.511Z,7.37
2023-05-08T05:32:49.664Z,7.65
2023-05-08T05:37:52.743Z,7.95
2023-05-08T05:42:56.048Z,8.21
2023-05-08T05:47:59.179Z,8.49
2023-05-08T05:53:02.673Z,8.68
2023-05-08T05:58:05.778Z,8.87
2023-05-08T06:03:10.997Z,9.11
2023-05-08T06:08:14.245Z,9.32
2023-05-08T06:13:17.573Z,9.52
2023-05-08T06:18:24.480Z,9.71
2023-05-08T06:23:27.973Z,9.96
2023-05-08T06:28:31.178Z,10.15
2023-05-08T06:33:34.282Z,10.37
2023-05-08T06:38:37.617Z,10.57
2023-05-08T06:43:41.022Z,10.80
2023-05-08T06:48:44.224Z,11.09
2023-05-08T06:53:47.324Z,11.31
2023-05-08T06:59:00.919Z,11.55
2023-05-08T07:04:11.039Z,11.82
2023-05-08T07:09:14.461Z,12.15
2023-05-08T07:14:17.682Z,12.40
2023-05-08T07:19:22.577Z,12.66
2023-05-08T07:24:26.039Z,12.94
2023-05-08T07:29:29.450Z,13.20
2023-05-08T07:34:35.095Z,13.46
2023-05-08T07:39:38.215Z,13.75
2023-05-08T07:44:53.769Z,13.99
2023-05-08T07:49:58.474Z,14.25
2023-05-08T07:55:01.682Z,14.55
2023-05-08T08:00:09.390Z,14.84
2023-05-08T08:05:13.239Z,15.07
2023-05-08T08:10:16.820Z,15.31
2023-05-08T08:15:23.146Z,15.51
2023-05-08T08:20:26.318Z,15.66
2023-05-08T08:25:29.999Z,15.59
2023-05-08T08:30:33.242Z,15.64
2023-05-08T08:35:36.463Z,15.83
2023-05-08T08:40:41.765Z,15.99
2023-05-08T08:45:45.634Z,16.13
2023-05-08T08:50:57.543Z,16.26
2023-05-08T08:56:04.251Z,16.50
2023-05-08T09:01:14.883Z,16.90
2023-05-08T09:06:19.776Z,17.27
2023-05-08T09:11:24.641Z,17.59
2023-05-08T09:16:28.880Z,17.92
2023-05-08T09:21:32.885Z,18.08
2023-05-08T09:26:39.869Z,18.27
2023-05-08T09:31:52.688Z,18.40
2023-05-08T09:37:05.745Z,18.46
2023-05-08T09:42:09.605Z,18.41
2023-05-08T09:47:20.125Z,18.52
2023-05-08T09:52:24.480Z,18.71
2023-05-08T09:57:29.431Z,18.50
2023-05-08T10:02:33.195Z,18.50
2023-05-08T10:07:39.338Z,18.81
2023-05-08T10:12:42.836Z,19.25
2023-05-08T10:17:58.425Z,19.66
2023-05-08T10:23:03.910Z,20.15
2023-05-08T10:28:18.696Z,20.54
2023-05-08T10:33:32.185Z,20.81
2023-05-08T10:38:38.035Z,21.17
2023-05-08T10:43:44.314Z,21.39
2023-05-08T10:49:24.992Z,21.41
2023-05-08T10:54:54.206Z,21.49
2023-05-08T10:59:57.530Z,21.66
2023-05-08T11:05:18.423Z,21.99
2023-05-08T11:10:23.045Z,22.21
2023-05-08T11:15:41.752Z,22.06
2023-05-08T11:21:15.705Z,22.16
2023-05-08T11:26:18.799Z,22.10
2023-05-08T11:31:22.245Z,22.04
2023-05-08T11:36:26.035Z,22.33
2023-05-08T11:41:29.225Z,22.87
2023-05-08T11:46:51.396Z,23.26
2023-05-08T11:51:58.804Z,23.59
2023-05-08T11:57:02.708Z,23.79
2023-05-08T12:02:09.113Z,23.98
2023-05-08T12:07:13.230Z,24.15
2023-05-08T12:12:16.539Z,24.19
2023-05-08T12:17:20.127Z,24.04
2023-05-08T12:22:23.499Z,23.99
2023-05-08T12:27:27.306Z,24.14
2023-05-08T12:32:30.749Z,24.43
2023-05-08T12:37:34.122Z,24.44
2023-05-08T12:42:50.214Z,24.41
2023-05-08T12:47:58.884Z,24.29
2023-05-08T12:53:18.502Z,24.18
2023-05-08T12:58:27.045Z,24.35
2023-05-08T13:03:31.326Z,25.00
2023-05-08T13:08:39.366Z,24.83
2023-05-08T13:13:42.475Z,24.77
2023-05-08T13:18:45.974Z,24.40
2023-05-08T13:23:49.121Z,23.99
2023-05-08T13:28:54.571Z,23.87
2023-05-08T13:33:59.385Z,23.46
2023-05-08T13:39:02.599Z,23.60
2023-05-08T13:44:06.123Z,23.74
2023-05-08T13:49:09.219Z,23.81
2023-05-08T13:54:12.323Z,24.14
2023-05-08T13:59:16.249Z,23.91
2023-05-08T14:04:19.656Z,23.96
2023-05-08T14:09:22.770Z,24.66
2023-05-08T14:14:26.073Z,24.95
2023-05-08T14:19:29.391Z,24.42
2023-05-08T14:24:33.004Z,24.60
2023-05-08T14:29:36.526Z,25.56
2023-05-08T14:34:39.628Z,26.57
2023-05-08T14:39:42.840Z,27.30
2023-05-08T14:44:46.277Z,27.81
2023-05-08T14:49:49.565Z,28.20
2023-05-08T14:54:53.954Z,28.50
2023-05-08T14:59:57.413Z,28.54
2023-05-08T15:05:00.555Z,28.64
2023-05-08T15:10:04.755Z,28.43
2023-05-08T15:15:08.405Z,27.93
2023-05-08T15:20:11.997Z,27.08
2023-05-08T15:25:41.107Z,26.62
2023-05-08T15:30:47.286Z,26.73
2023-05-08T15:35:49.264Z,26.86
2023-05-08T15:40:51.083Z,27.13
2023-05-08T15:45:53.010Z,27.41
2023-05-08T15:50:55.102Z,27.72
2023-05-08T15:55:57.415Z,27.73
2023-05-08T16:00:59.595Z,27.78
2023-05-08T16:06:01.594Z,27.81
2023-05-08T16:11:03.958Z,27.87
2023-05-08T16:16:06.178Z,28.05
2023-05-08T16:21:17.150Z,28.26
2023-05-08T16:26:19.942Z,28.32
2023-05-08T16:31:22.018Z,28.37
2023-05-08T16:36:23.689Z,28.24
2023-05-08T16:41:27.400Z,27.94
2023-05-08T16:46:30.438Z,27.68
2023-05-08T16:51:32.583Z,27.65
2023-05-08T16:56:34.572Z,27.65
2023-05-08T17:01:36.518Z,27.61
2023-05-08T17:06:42.537Z,27.42
2023-05-08T17:11:44.408Z,27.01
2023-05-08T17:16:46.431Z,26.49
2023-05-08T17:21:48.689Z,25.68
2023-05-08T17:26:50.572Z,24.67
2023-05-08T17:31:52.542Z,23.89
2023-05-08T17:36:55.089Z,23.25
2023-05-08T17:41:57.195Z,22.77
2023-05-08T17:46:59.072Z,22.33
2023-05-08T17:52:03.000Z,21.81
2023-05-08T17:57:04.881Z,21.37
2023-05-08T18:02:07.245Z,21.00
2023-05-08T18:07:09.071Z,20.64
2023-05-08T18:12:11.129Z,20.27
2023-05-08T18:17:16.486Z,19.79
2023-05-08T18:22:18.365Z,19.24
2023-05-08T18:27:20.163Z,18.70
2023-05-08T18:32:22.130Z,18.27
2023-05-08T18:37:24.527Z,17.93
2023-05-08T18:42:26.486Z,17.61
2023-05-08T18:47:28.432Z,17.29
2023-05-08T18:52:30.365Z,17.03
2023-05-08T18:57:32.332Z,16.79
2023-05-08T19:02:34.422Z,16.55
2023-05-08T19:07:37.212Z,16.23
2023-05-08T19:12:39.423Z,15.91
2023-05-08T19:17:42.213Z,15.63
2023-05-08T19:22:44.166Z,15.27
2023-05-08T19:27:46.251Z,14.75
2023-05-08T19:32:49.365Z,14.50
2023-05-08T19:37:51.234Z,14.42
2023-05-08T19:42:53.225Z,14.34
2023-05-08T19:47:55.020Z,14.39
2023-05-08T19:52:57.069Z,14.35
2023-05-08T19:57:58.844Z,14.20
2023-05-08T20:03:00.698Z,14.07
2023-05-08T20:08:02.681Z,13.97
2023-05-08T20:13:05.207Z,13.90
2023-05-08T20:18:07.521Z,13.86
2023-05-08T20:23:09.665Z,13.80
2023-05-08T20:28:11.971Z,13.75
2023-05-08T20:33:14.034Z,13.69
2023-05-08T20:38:15.996Z,13.68
2023-05-08T20:43:19.222Z,13.60
2023-05-08T20:48:21.301Z,13.46
2023-05-08T20:53:23.205Z,13.28
2023-05-08T20:58:25.058Z,13.10
2023-05-08T21:03:27.276Z,12.92
2023-05-08T21:08:29.017Z,12.68
2023-05-08T21:13:31.620Z,12.39
2023-05-08T21:18:33.390Z,12.16
2023-05-08T21:23:35.171Z,11.99
2023-05-08T21:28:36.946Z,11.74
2023-05-08T21:33:38.924Z,11.40
2023-05-08T21:38:41.695Z,11.08
2023-05-08T21:43:43.807Z,10.82
2023-05-08T21:48:45.795Z,10.59
2023-05-08T21:53:47.761Z,10.37
2023-05-08T21:58:49.751Z,10.20
2023-05-08T22:03:51.652Z,10.06
2023-05-08T22:08:53.814Z,9.90
2023-05-08T22:13:55.591Z,9.73
2023-05-08T22:18:57.461Z,9.58
2023-05-08T22:23:59.549Z,9.40
2023-05-08T22:29:01.417Z,9.14
2023-05-08T22:34:03.192Z,8.94
2023-05-08T22:39:07.542Z,8.76
2023-05-08T22:44:10.463Z,8.63
2023-05-08T22:49:12.522Z,8.55
2023-05-08T22:54:14.287Z,8.49
2023-05-08T22:59:16.170Z,8.41
2023-05-08T23:04:18.224Z,8.25
2023-05-08T23:09:20.231Z,8.17
2023-05-08T23:14:22.006Z,8.14
2023-05-08T23:19:23.779Z,8.11
2023-05-08T23:24:25.796Z,8.04
2023-05-08T23:29:28.660Z,7.95
2023-05-08T23:34:30.448Z,7.90
2023-05-08T23:39:37.327Z,7.83
2023-05-08T23:44:39.208Z,7.69
2023-05-08T23:49:41.056Z,7.58
2023-05-08T23:54:42.763Z,7.49
2023-05-08T23:59:44.632Z,7.38
